createdAt,value
2019-05-18T00:01:01.100Z,1.60
2019-05-18T00:03:31.196Z,1.60
2019-05-18T00:06:00.539Z,1.60
2019-05-18T00:08:29.384Z,1.70
2019-05-18T00:10:59.652Z,1.60
2019-05-18T00:13:29.490Z,1.62
2019-05-18T00:15:58.724Z,1.50
2019-05-18T00:18:27.888Z,1.62
2019-05-18T00:20:57.417Z,1.75
2019-05-18T00:23:26.566Z,1.50
2019-05-18T00:25:56.353Z,1.85
2019-05-18T00:28:25.400Z,1.52
2019-05-18T00:30:54.757Z,1.65
2019-05-18T00:33:24.047Z,1.60
2019-05-18T00:35:53.368Z,1.58
2019-05-18T00:38:22.852Z,1.50
2019-05-18T00:40:52.275Z,1.40
2019-05-18T00:43:21.685Z,1.30
2019-05-18T00:45:50.955Z,1.50
2019-05-18T00:48:21.121Z,1.40
2019-05-18T00:50:50.481Z,1.40
2019-05-18T00:53:20.826Z,1.70
2019-05-18T00:55:50.172Z,1.92
2019-05-18T00:58:19.788Z,1.67
2019-05-18T01:00:49.420Z,1.70
2019-05-18T01:03:19.187Z,1.85
2019-05-18T01:05:48.739Z,1.80
2019-05-18T01:08:19.077Z,1.60
2019-05-18T01:10:48.454Z,1.50
2019-05-18T01:13:17.734Z,1.67
2019-05-18T01:15:47.285Z,1.50
2019-05-18T01:18:17.198Z,1.40
2019-05-18T01:20:47.203Z,1.50
2019-05-18T01:23:16.346Z,1.55
2019-05-18T01:25:45.303Z,1.60
2019-05-18T01:28:14.906Z,1.40
2019-05-18T01:30:44.980Z,1.37
2019-05-18T01:33:14.225Z,1.40
2019-05-18T01:35:43.867Z,1.50
2019-05-18T01:38:13.289Z,1.25
2019-05-18T01:40:42.657Z,1.25
2019-05-18T01:43:11.982Z,1.65
2019-05-18T01:45:41.270Z,1.77
2019-05-18T01:48:13.656Z,1.30
2019-05-18T01:50:40.260Z,1.40
2019-05-18T01:53:09.558Z,1.48
2019-05-18T01:55:38.964Z,1.40
2019-05-18T01:58:08.624Z,1.33
2019-05-18T02:00:38.069Z,2.60
2019-05-18T02:03:07.667Z,3.25
2019-05-18T02:05:37.259Z,1.62
2019-05-18T02:08:07.555Z,1.70
2019-05-18T02:10:37.165Z,1.48
2019-05-18T02:13:06.925Z,1.70
2019-05-18T02:15:37.087Z,1.70
2019-05-18T02:18:06.474Z,1.70
2019-05-18T02:20:35.906Z,1.77
2019-05-18T02:23:05.408Z,1.70
2019-05-18T02:25:34.908Z,1.58
2019-05-18T02:28:05.179Z,1.80
2019-05-18T02:30:35.212Z,1.40
2019-05-18T02:33:04.568Z,1.30
2019-05-18T02:35:33.882Z,1.50
2019-05-18T02:38:09.323Z,1.60
2019-05-18T02:40:38.626Z,1.10
2019-05-18T02:43:08.308Z,1.40
2019-05-18T02:45:37.852Z,1.50
2019-05-18T02:48:07.462Z,1.65
2019-05-18T02:50:37.171Z,1.48
2019-05-18T02:53:07.460Z,1.50
2019-05-18T02:55:36.715Z,1.50
2019-05-18T02:58:06.968Z,1.40
2019-05-18T03:00:36.351Z,1.30
2019-05-18T03:03:05.926Z,1.40
2019-05-18T03:05:35.131Z,1.40
2019-05-18T03:08:05.330Z,1.40
2019-05-18T03:10:34.742Z,1.20
2019-05-18T03:13:04.455Z,2.75
2019-05-18T03:15:34.182Z,1.30
2019-05-18T03:18:04.574Z,1.17
2019-05-18T03:20:34.256Z,1.35
2019-05-18T03:23:03.825Z,1.42
2019-05-18T03:25:33.510Z,1.23
2019-05-18T03:28:03.548Z,1.30
2019-05-18T03:30:33.123Z,1.42
2019-05-18T03:33:03.780Z,1.45
2019-05-18T03:35:33.336Z,1.77
2019-05-18T03:38:03.044Z,1.80
2019-05-18T03:40:32.561Z,1.50
2019-05-18T03:43:01.819Z,1.50
2019-05-18T03:45:31.113Z,1.80
2019-05-18T03:48:00.740Z,1.70
2019-05-18T03:50:30.465Z,2.17
2019-05-18T03:52:59.788Z,2.53
2019-05-18T03:55:29.455Z,1.80
2019-05-18T03:57:59.534Z,1.65
2019-05-18T04:00:29.621Z,1.70
2019-05-18T04:02:59.135Z,1.50
2019-05-18T04:05:28.592Z,1.52
2019-05-18T04:07:57.723Z,1.60
2019-05-18T04:10:27.166Z,1.45
2019-05-18T04:12:56.283Z,1.60
2019-05-18T04:15:26.052Z,1.50
2019-05-18T04:17:55.452Z,1.62
2019-05-18T04:20:25.012Z,1.60
2019-05-18T04:22:54.521Z,1.70
2019-05-18T04:25:24.459Z,1.50
2019-05-18T04:27:53.987Z,1.90
2019-05-18T04:30:23.361Z,1.67
2019-05-18T04:32:53.911Z,1.90
2019-05-18T04:35:23.281Z,1.60
2019-05-18T04:37:52.624Z,2.17
2019-05-18T04:40:21.784Z,1.70
2019-05-18T04:42:50.964Z,1.70
2019-05-18T04:45:24.214Z,1.60
2019-05-18T04:47:53.752Z,1.40
2019-05-18T04:50:23.249Z,1.62
2019-05-18T04:52:52.759Z,1.60
2019-05-18T04:55:22.095Z,1.77
2019-05-18T04:57:51.708Z,1.70
2019-05-18T05:00:21.439Z,1.70
2019-05-18T05:02:50.832Z,1.55
2019-05-18T05:05:20.454Z,1.70
2019-05-18T05:07:50.087Z,1.80
2019-05-18T05:10:19.681Z,1.65
2019-05-18T05:12:48.798Z,1.85
2019-05-18T05:15:18.244Z,1.60
2019-05-18T05:17:47.823Z,1.77
2019-05-18T05:20:20.099Z,1.60
2019-05-18T05:22:47.244Z,2.00
2019-05-18T05:25:17.275Z,1.90
2019-05-18T05:27:46.682Z,1.60
2019-05-18T05:30:16.064Z,1.77
2019-05-18T05:32:45.393Z,1.80
2019-05-18T05:35:14.704Z,1.70
2019-05-18T05:37:44.180Z,1.83
2019-05-18T05:40:13.607Z,1.80
2019-05-18T05:42:43.292Z,1.63
2019-05-18T05:45:12.791Z,1.60
2019-05-18T05:47:43.726Z,1.87
2019-05-18T05:50:13.947Z,1.70
2019-05-18T05:52:44.014Z,1.90
2019-05-18T05:55:13.908Z,2.00
2019-05-18T05:57:43.682Z,1.60
2019-05-18T06:00:13.290Z,1.77
2019-05-18T06:02:42.672Z,1.50
2019-05-18T06:05:12.226Z,1.60
2019-05-18T06:07:41.629Z,1.90
2019-05-18T06:10:11.082Z,1.70
2019-05-18T06:12:40.568Z,1.63
2019-05-18T06:15:10.194Z,1.50
2019-05-18T06:17:39.686Z,1.80
2019-05-18T06:20:09.210Z,1.90
2019-05-18T06:22:38.414Z,1.50
2019-05-18T06:25:08.514Z,2.00
2019-05-18T06:27:38.932Z,1.80
2019-05-18T06:30:08.942Z,1.90
2019-05-18T06:32:38.661Z,2.20
2019-05-18T06:35:08.447Z,1.90
2019-05-18T06:37:38.095Z,2.63
2019-05-18T06:40:08.534Z,2.13
2019-05-18T06:42:37.953Z,1.90
2019-05-18T06:45:07.742Z,1.67
2019-05-18T06:47:36.877Z,2.00
2019-05-18T06:50:11.729Z,2.07
2019-05-18T06:52:38.349Z,2.30
2019-05-18T06:55:08.815Z,1.60
2019-05-18T06:57:38.438Z,1.90
2019-05-18T07:00:09.418Z,2.10
2019-05-18T07:02:38.903Z,1.80
2019-05-18T07:05:08.645Z,2.10
2019-05-18T07:07:39.041Z,1.80
2019-05-18T07:10:08.477Z,1.83
2019-05-18T07:12:37.847Z,2.40
2019-05-18T07:15:08.298Z,2.00
2019-05-18T07:17:37.450Z,2.00
2019-05-18T07:20:07.046Z,1.70
2019-05-18T07:22:36.598Z,1.70
2019-05-18T07:25:07.203Z,1.97
2019-05-18T07:27:36.712Z,1.90
2019-05-18T07:30:06.210Z,1.47
2019-05-18T07:32:35.714Z,1.90
2019-05-18T07:35:05.523Z,1.80
2019-05-18T07:37:35.421Z,2.13
2019-05-18T07:40:05.232Z,2.10
2019-05-18T07:42:34.711Z,1.70
2019-05-18T07:45:04.550Z,1.93
2019-05-18T07:47:34.380Z,1.80
2019-05-18T07:50:03.650Z,2.10
2019-05-18T07:52:33.142Z,1.90
2019-05-18T07:55:02.658Z,2.20
2019-05-18T07:57:32.392Z,1.80
2019-05-18T08:00:02.110Z,1.63
2019-05-18T08:02:31.315Z,2.00
2019-05-18T08:05:00.903Z,2.00
2019-05-18T08:07:31.292Z,1.70
2019-05-18T08:10:00.676Z,1.87
2019-05-18T08:12:29.861Z,2.27
2019-05-18T08:14:59.217Z,3.03
2019-05-18T08:17:28.536Z,2.50
2019-05-18T08:19:58.170Z,2.67
2019-05-18T08:22:27.765Z,2.90
2019-05-18T08:24:56.847Z,2.67
2019-05-18T08:27:26.487Z,2.57
2019-05-18T08:29:56.218Z,2.20
2019-05-18T08:32:25.847Z,2.10
2019-05-18T08:34:55.514Z,2.00
2019-05-18T08:37:25.267Z,2.10
2019-05-18T08:39:55.264Z,2.00
2019-05-18T08:42:24.943Z,1.90
2019-05-18T08:44:54.315Z,1.87
2019-05-18T08:47:23.593Z,2.03
2019-05-18T08:49:52.953Z,2.00
2019-05-18T08:52:22.271Z,1.80
2019-05-18T08:54:54.182Z,2.20
2019-05-18T08:57:23.755Z,2.00
2019-05-18T08:59:53.386Z,2.10
2019-05-18T09:02:22.849Z,2.00
2019-05-18T09:04:52.078Z,2.20
2019-05-18T09:07:21.322Z,2.27
2019-05-18T09:09:50.847Z,1.87
2019-05-18T09:12:20.147Z,2.10
2019-05-18T09:14:49.491Z,2.30
2019-05-18T09:17:18.999Z,2.30
2019-05-18T09:19:48.485Z,2.30
2019-05-18T09:22:23.192Z,2.17
2019-05-18T09:24:47.685Z,2.30
2019-05-18T09:27:17.102Z,2.20
2019-05-18T09:29:46.929Z,2.43
2019-05-18T09:32:16.496Z,2.20
2019-05-18T09:34:45.930Z,2.20
2019-05-18T09:37:16.425Z,2.10
2019-05-18T09:39:46.053Z,2.23
2019-05-18T09:42:16.073Z,2.20
2019-05-18T09:44:45.703Z,1.80
2019-05-18T09:47:15.142Z,1.80
2019-05-18T09:49:44.612Z,1.67
2019-05-18T09:52:14.224Z,1.90
2019-05-18T09:54:43.922Z,1.80
2019-05-18T09:57:14.655Z,2.00
2019-05-18T09:59:44.076Z,1.80
2019-05-18T10:02:13.209Z,1.70
2019-05-18T10:04:42.524Z,1.67
2019-05-18T10:07:11.712Z,2.27
2019-05-18T10:09:41.374Z,1.70
2019-05-18T10:12:10.739Z,1.87
2019-05-18T10:14:40.093Z,1.90
2019-05-18T10:19:47.593Z,1.80
2019-05-18T10:22:17.306Z,1.60
2019-05-18T10:24:47.655Z,1.57
2019-05-18T10:27:16.804Z,1.70
2019-05-18T10:29:46.688Z,1.80
2019-05-18T10:32:16.153Z,2.20
2019-05-18T10:34:45.495Z,1.70
2019-05-18T10:37:14.999Z,1.63
2019-05-18T10:39:44.384Z,1.67
2019-05-18T10:42:13.674Z,1.80
2019-05-18T10:44:43.039Z,1.70
2019-05-18T10:47:12.829Z,1.90
2019-05-18T10:49:42.181Z,1.70
2019-05-18T10:52:11.448Z,1.60
2019-05-18T10:54:41.870Z,2.10
2019-05-18T10:57:11.353Z,1.60
2019-05-18T10:59:40.878Z,1.90
2019-05-18T11:02:10.320Z,2.03
2019-05-18T11:04:39.804Z,1.70
2019-05-18T11:07:09.916Z,1.70
2019-05-18T11:09:39.352Z,1.80
2019-05-18T11:12:08.570Z,1.90
2019-05-18T11:14:37.947Z,1.73
2019-05-18T11:17:07.446Z,2.27
2019-05-18T11:19:36.935Z,1.70
2019-05-18T11:22:06.675Z,1.63
2019-05-18T11:24:36.239Z,1.77
2019-05-18T11:27:05.760Z,1.37
2019-05-18T11:29:35.241Z,1.57
2019-05-18T11:32:05.596Z,1.70
2019-05-18T11:34:34.631Z,1.80
2019-05-18T11:37:04.205Z,1.73
2019-05-18T11:39:33.931Z,1.70
2019-05-18T11:42:03.390Z,1.57
2019-05-18T11:44:33.924Z,1.63
2019-05-18T11:47:03.649Z,1.70
2019-05-18T11:49:33.152Z,1.70
2019-05-18T11:52:02.671Z,1.60
2019-05-18T11:54:31.905Z,1.67
2019-05-18T11:57:01.455Z,1.45
2019-05-18T11:59:31.014Z,1.60
2019-05-18T12:02:00.991Z,1.67
2019-05-18T12:04:30.061Z,1.50
2019-05-18T12:07:00.337Z,1.60
2019-05-18T12:09:29.894Z,1.50
2019-05-18T12:12:00.275Z,1.70
2019-05-18T12:14:29.617Z,1.50
2019-05-18T12:16:59.175Z,1.73
2019-05-18T12:19:28.600Z,1.20
2019-05-18T12:21:57.959Z,1.30
2019-05-18T12:24:28.315Z,1.50
2019-05-18T12:26:58.090Z,1.43
2019-05-18T12:29:27.245Z,1.40
2019-05-18T12:31:56.153Z,1.40
2019-05-18T12:34:25.642Z,1.63
2019-05-18T12:36:54.899Z,1.40
2019-05-18T12:39:24.290Z,1.40
2019-05-18T12:41:53.743Z,1.53
2019-05-18T12:44:22.875Z,1.30
2019-05-18T12:46:53.049Z,1.40
2019-05-18T12:49:22.567Z,1.63
2019-05-18T12:51:52.394Z,1.50
2019-05-18T12:54:29.024Z,1.10
2019-05-18T12:56:51.254Z,1.43
2019-05-18T12:59:20.653Z,1.40
2019-05-18T13:01:50.170Z,1.67
2019-05-18T13:04:19.731Z,1.30
2019-05-18T13:06:49.761Z,1.60
2019-05-18T13:09:23.263Z,1.57
2019-05-18T13:11:49.667Z,1.43
2019-05-18T13:14:18.881Z,1.40
2019-05-18T13:16:47.979Z,1.53
2019-05-18T13:19:17.218Z,1.40
2019-05-18T13:21:46.818Z,1.50
2019-05-18T13:24:16.269Z,1.60
2019-05-18T13:26:45.791Z,1.27
2019-05-18T13:29:14.716Z,1.73
2019-05-18T13:31:44.306Z,1.40
2019-05-18T13:34:13.569Z,1.60
2019-05-18T13:36:42.872Z,1.50
2019-05-18T13:39:12.380Z,1.60
2019-05-18T13:41:41.640Z,1.60
2019-05-18T13:44:11.024Z,1.37
2019-05-18T13:46:40.312Z,1.70
2019-05-18T13:49:10.730Z,1.50
2019-05-18T13:51:40.092Z,1.30
2019-05-18T13:54:09.842Z,1.53
2019-05-18T13:56:39.950Z,1.50
2019-05-18T13:59:09.365Z,1.50
2019-05-18T14:01:38.783Z,1.40
2019-05-18T14:04:08.182Z,1.35
2019-05-18T14:06:37.581Z,1.52
2019-05-18T14:09:07.071Z,1.50
2019-05-18T14:11:37.322Z,1.33
2019-05-18T14:14:06.889Z,1.40
2019-05-18T14:16:36.242Z,1.30
2019-05-18T14:19:05.532Z,1.42
2019-05-18T14:21:34.946Z,1.27
2019-05-18T14:24:04.597Z,1.40
2019-05-18T14:26:34.084Z,1.70
2019-05-18T14:29:03.349Z,1.73
2019-05-18T14:31:32.778Z,1.70
2019-05-18T14:34:02.344Z,1.50
2019-05-18T14:36:32.260Z,1.70
2019-05-18T14:39:01.629Z,1.58
2019-05-18T14:41:31.072Z,1.70
2019-05-18T14:44:01.176Z,1.70
2019-05-18T14:46:30.622Z,1.60
2019-05-18T14:48:59.894Z,1.60
2019-05-18T14:51:29.298Z,1.70
2019-05-18T14:53:58.961Z,1.50
2019-05-18T14:56:28.241Z,1.80
2019-05-18T14:58:57.869Z,1.95
2019-05-18T15:01:27.488Z,1.80
2019-05-18T15:03:57.009Z,1.85
2019-05-18T15:06:26.620Z,2.10
2019-05-18T15:08:56.538Z,1.90
2019-05-18T15:11:26.304Z,2.00
2019-05-18T15:13:55.578Z,1.92
2019-05-18T15:16:25.081Z,1.75
2019-05-18T15:18:54.632Z,1.92
2019-05-18T15:21:23.881Z,1.80
2019-05-18T15:23:53.450Z,1.80
2019-05-18T15:26:22.679Z,1.77
2019-05-18T15:28:52.258Z,1.70
2019-05-18T15:31:23.785Z,1.65
2019-05-18T15:33:51.490Z,1.80
2019-05-18T15:36:20.990Z,2.03
2019-05-18T15:38:50.463Z,1.73
2019-05-18T15:41:19.944Z,1.70
2019-05-18T15:43:49.214Z,1.30
2019-05-18T15:46:18.677Z,1.52
2019-05-18T15:48:48.129Z,1.40
2019-05-18T15:51:17.472Z,1.10
2019-05-18T15:53:46.869Z,1.45
2019-05-18T15:56:16.274Z,1.30
2019-05-18T15:58:45.415Z,1.10
2019-05-18T16:01:14.770Z,1.37
2019-05-18T16:03:44.294Z,1.40
2019-05-18T16:06:13.848Z,1.20
2019-05-18T16:08:44.182Z,1.15
2019-05-18T16:11:14.342Z,1.30
2019-05-18T16:13:44.655Z,1.02
2019-05-18T16:16:15.263Z,1.10
2019-05-18T16:18:46.286Z,1.02
2019-05-18T16:21:17.518Z,1.17
2019-05-18T16:23:48.264Z,1.20
2019-05-18T16:26:21.824Z,1.00
2019-05-18T16:28:50.123Z,0.90
2019-05-18T16:31:21.078Z,0.98
2019-05-18T16:33:50.658Z,0.93
2019-05-18T16:36:20.417Z,1.00
2019-05-18T16:38:51.015Z,0.90
2019-05-18T16:41:20.608Z,1.10
2019-05-18T16:43:50.236Z,1.15
2019-05-18T16:46:21.189Z,0.95
2019-05-18T16:48:50.728Z,0.93
2019-05-18T16:51:20.510Z,0.88
2019-05-18T16:53:50.404Z,0.90
2019-05-18T16:56:19.431Z,0.90
2019-05-18T16:58:49.654Z,0.82
2019-05-18T17:01:20.142Z,1.10
2019-05-18T17:03:51.095Z,0.80
2019-05-18T17:06:21.667Z,1.00
2019-05-18T17:08:52.588Z,0.90
2019-05-18T17:11:24.579Z,0.80
2019-05-18T17:13:53.867Z,0.88
2019-05-18T17:16:23.276Z,0.80
2019-05-18T17:18:54.398Z,1.05
2019-05-18T17:21:24.577Z,0.80
2019-05-18T17:23:56.184Z,0.80
2019-05-18T17:26:26.950Z,0.90
2019-05-18T17:28:56.915Z,0.80
2019-05-18T17:31:27.231Z,1.00
2019-05-18T17:33:56.482Z,0.90
2019-05-18T17:36:26.004Z,0.80
2019-05-18T17:38:55.535Z,0.70
2019-05-18T17:41:25.206Z,0.70
2019-05-18T17:43:54.666Z,0.70
2019-05-18T17:46:24.208Z,0.62
2019-05-18T17:48:53.597Z,0.60
2019-05-18T17:51:23.857Z,0.70
2019-05-18T17:53:53.195Z,0.80
2019-05-18T17:56:22.634Z,0.57
2019-05-18T17:58:51.958Z,0.60
2019-05-18T18:01:22.172Z,0.80
2019-05-18T18:03:51.852Z,0.88
2019-05-18T18:06:21.548Z,0.82
2019-05-18T18:08:51.105Z,0.70
2019-05-18T18:11:20.272Z,0.50
2019-05-18T18:13:50.739Z,0.90
2019-05-18T18:16:20.200Z,0.68
2019-05-18T18:18:49.446Z,0.90
2019-05-18T18:21:19.117Z,0.90
2019-05-18T18:23:54.856Z,0.90
2019-05-18T18:26:18.313Z,0.80
2019-05-18T18:28:48.903Z,0.73
2019-05-18T18:31:18.441Z,0.90
2019-05-18T18:33:48.528Z,0.80
2019-05-18T18:36:18.516Z,0.90
2019-05-18T18:38:48.095Z,0.77
2019-05-18T18:41:18.605Z,0.68
2019-05-18T18:43:48.965Z,0.90
2019-05-18T18:46:18.350Z,0.80
2019-05-18T18:48:47.868Z,0.70
2019-05-18T18:51:17.166Z,0.80
2019-05-18T18:53:46.250Z,0.80
2019-05-18T18:56:15.786Z,0.80
2019-05-18T18:58:45.344Z,0.77
2019-05-18T19:01:14.530Z,0.60
2019-05-18T19:03:45.150Z,0.70
2019-05-18T19:06:14.751Z,0.93
2019-05-18T19:08:44.079Z,0.70
2019-05-18T19:11:13.467Z,0.80
2019-05-18T19:13:45.704Z,0.90
2019-05-18T19:16:13.229Z,0.75
2019-05-18T19:18:42.993Z,0.70
2019-05-18T19:21:12.904Z,0.88
2019-05-18T19:23:42.118Z,0.90
2019-05-18T19:26:11.738Z,0.88
2019-05-18T19:28:41.039Z,0.90
2019-05-18T19:31:10.351Z,0.90
2019-05-18T19:33:39.657Z,1.00
2019-05-18T19:36:09.269Z,0.82
2019-05-18T19:38:38.672Z,0.82
2019-05-18T19:41:08.121Z,1.20
2019-05-18T19:43:39.177Z,1.00
2019-05-18T19:46:08.868Z,1.10
2019-05-18T19:48:38.047Z,0.90
2019-05-18T19:51:07.453Z,0.88
2019-05-18T19:53:37.340Z,0.80
2019-05-18T19:56:06.883Z,1.10
2019-05-18T19:58:36.132Z,0.80
2019-05-18T20:01:05.559Z,1.00
2019-05-18T20:03:34.859Z,0.90
2019-05-18T20:06:04.337Z,0.90
2019-05-18T20:08:34.316Z,0.82
2019-05-18T20:11:03.646Z,0.90
2019-05-18T20:13:33.104Z,1.00
2019-05-18T20:16:02.670Z,1.00
2019-05-18T20:18:32.382Z,0.80
2019-05-18T20:21:02.896Z,1.02
2019-05-18T20:23:33.105Z,0.80
2019-05-18T20:26:03.424Z,0.70
2019-05-18T20:28:32.836Z,0.90
2019-05-18T20:31:02.452Z,1.00
2019-05-18T20:33:31.904Z,0.80
2019-05-18T20:36:01.199Z,0.90
2019-05-18T20:38:29.907Z,0.90
2019-05-18T20:41:02.514Z,0.80
2019-05-18T20:43:32.855Z,0.90
2019-05-18T20:46:02.158Z,1.00
2019-05-18T20:48:31.422Z,0.80
2019-05-18T20:51:00.994Z,0.90
2019-05-18T20:53:30.351Z,0.80
2019-05-18T20:55:59.886Z,0.98
2019-05-18T20:58:39.496Z,0.80
2019-05-18T21:00:59.212Z,1.00
2019-05-18T21:03:28.693Z,1.02
2019-05-18T21:05:58.712Z,1.00
2019-05-18T21:08:28.013Z,1.20
2019-05-18T21:10:57.330Z,0.80
2019-05-18T21:13:26.684Z,0.90
2019-05-18T21:15:55.925Z,0.80
2019-05-18T21:18:25.321Z,0.90
2019-05-18T21:20:55.905Z,0.82
2019-05-18T21:23:25.282Z,0.70
2019-05-18T21:25:54.656Z,1.00
2019-05-18T21:28:24.111Z,0.73
2019-05-18T21:30:53.335Z,0.82
2019-05-18T21:33:22.728Z,0.90
2019-05-18T21:35:52.233Z,0.80
2019-05-18T21:38:21.782Z,0.90
2019-05-18T21:40:51.098Z,0.95
2019-05-18T21:43:20.414Z,0.95
2019-05-18T21:45:49.763Z,1.00
2019-05-18T21:48:19.251Z,0.90
2019-05-18T21:50:48.621Z,1.00
2019-05-18T21:53:17.795Z,1.00
2019-05-18T21:55:47.206Z,1.08
2019-05-18T21:58:16.484Z,1.00
2019-05-18T22:00:46.615Z,1.08
2019-05-18T22:03:15.914Z,0.88
2019-05-18T22:05:45.311Z,0.90
2019-05-18T22:08:14.582Z,0.90
2019-05-18T22:10:43.997Z,0.95
2019-05-18T22:13:13.523Z,1.20
2019-05-18T22:15:43.075Z,0.98
2019-05-18T22:18:24.039Z,1.02
2019-05-18T22:20:44.281Z,0.90
2019-05-18T22:23:13.091Z,0.80
2019-05-18T22:25:41.980Z,1.20
2019-05-18T22:28:11.569Z,0.80
2019-05-18T22:30:41.088Z,1.00
2019-05-18T22:33:10.533Z,1.00
2019-05-18T22:35:40.012Z,1.00
2019-05-18T22:38:09.291Z,1.00
2019-05-18T22:40:38.837Z,1.08
2019-05-18T22:43:08.293Z,0.95
2019-05-18T22:45:37.784Z,0.90
2019-05-18T22:48:07.987Z,0.90
2019-05-18T22:50:38.330Z,1.00
2019-05-18T22:53:07.717Z,0.90
2019-05-18T22:55:37.016Z,0.90
2019-05-18T22:58:07.740Z,1.10
2019-05-18T23:00:37.315Z,1.20
2019-05-18T23:03:06.809Z,0.95
2019-05-18T23:05:36.223Z,0.90
2019-05-18T23:08:05.811Z,0.88
2019-05-18T23:10:35.066Z,0.90
2019-05-18T23:13:04.481Z,0.85
2019-05-18T23:15:33.968Z,1.15
2019-05-18T23:18:03.534Z,1.15
2019-05-18T23:20:32.966Z,1.02
2019-05-18T23:23:02.564Z,1.30
2019-05-18T23:25:32.367Z,1.10
2019-05-18T23:28:01.730Z,1.30
2019-05-18T23:30:30.820Z,1.37
2019-05-18T23:33:00.222Z,1.45
2019-05-18T23:35:29.847Z,1.33
2019-05-18T23:37:59.864Z,1.20
2019-05-18T23:40:28.736Z,1.45
2019-05-18T23:42:57.928Z,1.60
2019-05-18T23:45:27.282Z,1.37
2019-05-18T23:47:59.419Z,1.30
2019-05-18T23:50:27.230Z,1.48
2019-05-18T23:52:56.595Z,1.60
2019-05-18T23:55:25.971Z,1.37
2019-05-18T23:57:55.541Z,1.20
